Time;durP1;ratioP1;P1;durP2;ratioP2;P2;SDS_P1;SDS_P2;PMS_P1;PMS_P2;Temp;Humidity;BMP_temperature;BMP_pressure;BME280_temperature;BME280_humidity;BME280_pressure;Samples;Min_cycle;Max_cycle;Signal;HPM_P1;HPM_P2
2022/01/07 00:00:48;;;;;;;;;;;4.40;98.70;;;;;;5097607;27;20368;-78
2022/01/07 00:03:14;;;;;;;;;;;4.50;98.50;;;;;;5114686;27;19931;-77
2022/01/07 00:05:40;;;;;;;;;;;4.50;98.00;;;;;;5097020;27;19923;-78
2022/01/07 00:08:06;;;;;;;;;;;4.50;97.80;;;;;;5132407;27;19911;-77
2022/01/07 00:10:32;;;;;;;;;;;4.50;97.90;;;;;;5114495;27;19914;-78
2022/01/07 00:12:57;;;;;;;;;;;4.50;98.00;;;;;;5115136;27;20371;-77
2022/01/07 00:15:23;;;;;;;;;;;4.50;97.60;;;;;;5133273;27;20351;-77
2022/01/07 00:17:48;;;;;;;;;;;4.50;97.70;;;;;;5115336;28;20468;-77
2022/01/07 00:20:14;;;;;;;;;;;4.50;97.90;;;;;;5114756;28;19914;-78
2022/01/07 00:22:40;;;;;;;;;;;4.50;97.90;;;;;;5132801;28;19919;-78
2022/01/07 00:25:07;;;;;;;;;;;4.50;98.20;;;;;;5111261;28;19907;-77
2022/01/07 00:27:32;;;;;;;;;;;4.60;98.40;;;;;;5113703;28;19923;-78
2022/01/07 00:29:58;;;;;;;;;;;4.60;98.40;;;;;;5113124;28;19922;-79
2022/01/07 00:32:23;;;;;;;;;;;4.60;98.00;;;;;;5133089;28;19990;-78
2022/01/07 00:34:49;;;;;;;;;;;4.50;97.50;;;;;;5132399;28;20049;-78
2022/01/07 00:37:15;;;;;;;;;;;4.50;97.90;;;;;;5114828;28;19960;-77
2022/01/07 00:39:40;;;;;;;;;;;4.50;97.70;;;;;;5114119;28;19911;-78
2022/01/07 00:42:06;;;;;;;;;;;4.50;97.90;;;;;;5132569;28;19916;-77
2022/01/07 00:44:31;;;;;;;;;;;4.50;97.80;;;;;;5095829;28;19927;-81
2022/01/07 00:46:57;;;;;;;;;;;4.50;97.60;;;;;;5097387;28;19923;-77
2022/01/07 00:49:22;;;;;;;;;;;4.50;97.70;;;;;;5114717;28;20080;-77
2022/01/07 00:51:48;;;;;;;;;;;4.60;97.70;;;;;;5114246;28;19919;-77
2022/01/07 00:54:14;;;;;;;;;;;4.60;97.80;;;;;;5132827;28;19915;-76
2022/01/07 00:56:39;;;;;;;;;;;4.60;97.90;;;;;;5111792;28;19935;-77
2022/01/07 00:59:05;;;;;;;;;;;4.60;97.60;;;;;;5114168;28;19911;-78
2022/01/07 01:01:30;;;;;;;;;;;4.60;97.80;;;;;;5114374;28;19912;-76
2022/01/07 01:03:56;;;;;;;;;;;4.60;98.00;;;;;;5096392;28;19919;-76
2022/01/07 01:06:21;;;;;;;;;;;4.60;97.90;;;;;;5114193;28;19930;-77
2022/01/07 01:08:47;;;;;;;;;;;4.70;98.30;;;;;;5113181;28;20253;-76
2022/01/07 01:11:12;;;;;;;;;;;4.60;97.80;;;;;;5114063;28;19916;-77
2022/01/07 01:13:38;;;;;;;;;;;4.60;97.90;;;;;;5113441;28;19919;-78
2022/01/07 01:16:04;;;;;;;;;;;4.50;98.00;;;;;;5098517;27;19911;-78
2022/01/07 01:18:29;;;;;;;;;;;4.50;98.50;;;;;;5095627;27;20287;-78
2022/01/07 01:20:55;;;;;;;;;;;4.50;98.30;;;;;;5118717;27;19927;-77
2022/01/07 01:23:20;;;;;;;;;;;4.50;98.80;;;;;;5100676;27;20355;-78
2022/01/07 01:25:47;;;;;;;;;;;4.50;99.40;;;;;;5117049;27;19919;-77
2022/01/07 01:28:12;;;;;;;;;;;4.50;99.50;;;;;;5117765;27;19922;-76
2022/01/07 01:30:38;;;;;;;;;;;4.50;99.80;;;;;;5135374;27;19911;-82
2022/01/07 01:33:04;;;;;;;;;;;4.50;99.60;;;;;;5134975;27;19912;-76
2022/01/07 01:35:29;;;;;;;;;;;4.50;99.60;;;;;;5101087;27;19980;-77
2022/01/07 01:37:55;;;;;;;;;;;4.40;99.80;;;;;;5132083;27;19911;-78
2022/01/07 01:40:21;;;;;;;;;;;4.40;99.90;;;;;;5117430;27;20355;-82
2022/01/07 01:42:48;;;;;;;;;;;4.40;99.90;;;;;;5117879;27;19927;-78
2022/01/07 01:45:16;;;;;;;;;;;4.40;99.90;;;;;;5118154;27;19919;-78
2022/01/07 01:47:42;;;;;;;;;;;4.30;99.90;;;;;;5116203;27;19918;-78
2022/01/07 01:50:08;;;;;;;;;;;4.40;99.90;;;;;;5118117;27;19922;-80
2022/01/07 01:52:34;;;;;;;;;;;4.40;99.90;;;;;;5117369;27;19924;-80
2022/01/07 01:54:59;;;;;;;;;;;4.40;99.90;;;;;;5118808;27;19912;-80
2022/01/07 01:57:25;;;;;;;;;;;4.40;99.90;;;;;;5118826;27;19908;-80
2022/01/07 01:59:50;;;;;;;;;;;4.30;99.90;;;;;;5118704;27;19911;-81
2022/01/07 02:02:16;;;;;;;;;;;4.30;99.90;;;;;;5118666;27;19932;-81
2022/01/07 02:04:42;;;;;;;;;;;4.30;99.90;;;;;;5118545;27;20022;-80
2022/01/07 02:07:08;;;;;;;;;;;4.20;99.90;;;;;;5118824;27;19908;-81
2022/01/07 02:09:35;;;;;;;;;;;4.30;99.90;;;;;;5118549;27;19912;-81
2022/01/07 02:12:08;;;;;;;;;;;4.30;99.90;;;;;;5136506;27;19960;-79
2022/01/07 02:14:36;;;;;;;;;;;4.20;99.90;;;;;;5101291;27;19912;-80
2022/01/07 02:17:08;;;;;;;;;;;4.20;99.90;;;;;;5136727;27;19911;-81
2022/01/07 02:19:35;;;;;;;;;;;4.20;99.90;;;;;;5118568;27;20348;-81
2022/01/07 02:22:01;;;;;;;;;;;4.30;99.80;;;;;;5118494;27;19911;-80
2022/01/07 02:24:26;;;;;;;;;;;4.30;99.80;;;;;;5136755;27;20006;-79
2022/01/07 02:26:52;;;;;;;;;;;4.30;99.90;;;;;;5117829;27;19995;-80
2022/01/07 02:29:18;;;;;;;;;;;4.30;99.90;;;;;;5136909;27;20301;-81
2022/01/07 02:31:43;;;;;;;;;;;4.30;99.50;;;;;;5118500;27;20006;-81
2022/01/07 02:34:09;;;;;;;;;;;4.30;99.60;;;;;;5136538;27;19913;-80
2022/01/07 02:36:34;;;;;;;;;;;4.30;99.70;;;;;;5101114;27;19917;-79
2022/01/07 02:39:00;;;;;;;;;;;4.30;99.50;;;;;;5101003;27;19987;-80
2022/01/07 02:41:26;;;;;;;;;;;4.30;99.60;;;;;;5117902;27;19957;-80
2022/01/07 02:43:52;;;;;;;;;;;4.30;99.60;;;;;;5136004;27;20132;-81
2022/01/07 02:46:18;;;;;;;;;;;4.40;99.70;;;;;;5100992;27;20310;-79
2022/01/07 02:48:43;;;;;;;;;;;4.40;99.50;;;;;;5135847;27;19998;-80
2022/01/07 02:51:09;;;;;;;;;;;4.40;98.90;;;;;;5117750;27;19964;-78
2022/01/07 02:53:34;;;;;;;;;;;4.40;98.50;;;;;;5137829;27;19911;-80
2022/01/07 02:56:00;;;;;;;;;;;4.40;98.80;;;;;;5119642;27;19908;-81
2022/01/07 02:58:25;;;;;;;;;;;4.40;99.10;;;;;;5117840;27;19918;-81
2022/01/07 03:00:51;;;;;;;;;;;4.50;98.80;;;;;;5117578;27;20010;-81
2022/01/07 03:03:16;;;;;;;;;;;4.50;98.80;;;;;;5100668;27;19962;-82
2022/01/07 03:05:42;;;;;;;;;;;4.50;98.60;;;;;;5136235;27;20267;-80
2022/01/07 03:08:09;;;;;;;;;;;4.50;98.50;;;;;;5100800;27;20026;-81
2022/01/07 03:10:34;;;;;;;;;;;4.60;98.50;;;;;;5135837;27;19911;-80
2022/01/07 03:13:01;;;;;;;;;;;4.60;98.40;;;;;;5117102;27;19918;-80
2022/01/07 03:15:27;;;;;;;;;;;4.60;98.40;;;;;;5117152;27;19912;-79
2022/01/07 03:17:52;;;;;;;;;;;4.70;98.60;;;;;;5116795;27;19975;-81
2022/01/07 03:20:19;;;;;;;;;;;4.70;98.50;;;;;;5117904;27;19918;-81
2022/01/07 03:22:45;;;;;;;;;;;4.70;98.50;;;;;;5135579;27;19920;-80
2022/01/07 03:25:13;;;;;;;;;;;4.70;98.30;;;;;;5116570;27;20727;-80
2022/01/07 03:27:39;;;;;;;;;;;4.70;98.30;;;;;;5116736;27;19919;-81
2022/01/07 03:30:06;;;;;;;;;;;4.70;98.10;;;;;;5135127;27;19912;-80
2022/01/07 03:32:31;;;;;;;;;;;4.70;98.20;;;;;;5117041;27;19907;-79
2022/01/07 03:34:57;;;;;;;;;;;4.70;98.30;;;;;;5135307;27;19960;-81
2022/01/07 03:37:22;;;;;;;;;;;4.70;98.50;;;;;;5099876;27;20274;-80
2022/01/07 03:39:48;;;;;;;;;;;4.60;98.70;;;;;;5116649;27;19908;-81
2022/01/07 03:42:13;;;;;;;;;;;4.60;98.90;;;;;;5134754;27;19911;-81
2022/01/07 03:44:39;;;;;;;;;;;4.60;99.30;;;;;;5116728;27;19911;-80
2022/01/07 03:47:05;;;;;;;;;;;4.60;99.40;;;;;;5116364;27;19911;-80
2022/01/07 03:49:30;;;;;;;;;;;4.60;99.50;;;;;;5116552;27;19908;-81
2022/01/07 03:51:56;;;;;;;;;;;4.60;99.60;;;;;;5134744;27;19994;-79
2022/01/07 03:54:22;;;;;;;;;;;4.60;99.50;;;;;;5116533;27;20023;-79
2022/01/07 03:56:47;;;;;;;;;;;4.60;99.50;;;;;;5135568;27;19908;-81
2022/01/07 03:59:13;;;;;;;;;;;4.60;99.60;;;;;;5116751;27;19951;-80
2022/01/07 04:01:38;;;;;;;;;;;4.60;99.60;;;;;;5116737;28;19914;-80
2022/01/07 04:04:04;;;;;;;;;;;4.60;99.60;;;;;;5116369;27;19915;-82
2022/01/07 04:06:30;;;;;;;;;;;4.60;99.80;;;;;;5135109;27;19912;-80
2022/01/07 04:08:55;;;;;;;;;;;4.60;99.90;;;;;;5100376;27;20261;-80
2022/01/07 04:11:21;;;;;;;;;;;4.70;99.90;;;;;;5116698;27;19911;-80
2022/01/07 04:13:46;;;;;;;;;;;4.70;99.70;;;;;;5116585;27;19998;-80
2022/01/07 04:16:12;;;;;;;;;;;4.60;99.80;;;;;;5116428;27;20323;-79
2022/01/07 04:18:38;;;;;;;;;;;4.60;99.90;;;;;;5135670;27;19907;-79
2022/01/07 04:21:04;;;;;;;;;;;4.60;99.90;;;;;;5116561;28;19907;-81
2022/01/07 04:23:30;;;;;;;;;;;4.60;99.90;;;;;;5116659;28;20259;-79
2022/01/07 04:25:55;;;;;;;;;;;4.50;99.90;;;;;;5134467;28;19911;-80
2022/01/07 04:28:21;;;;;;;;;;;4.50;99.90;;;;;;5134482;28;20076;-80
2022/01/07 04:30:46;;;;;;;;;;;4.40;99.90;;;;;;5116447;28;20436;-78
2022/01/07 04:33:14;;;;;;;;;;;4.50;99.90;;;;;;5116172;28;19938;-78
2022/01/07 04:35:41;;;;;;;;;;;4.50;99.90;;;;;;5115836;28;19911;-78
2022/01/07 04:38:08;;;;;;;;;;;4.50;99.90;;;;;;5115931;28;19918;-78
2022/01/07 04:40:33;;;;;;;;;;;4.40;99.90;;;;;;5116833;28;19994;-78
2022/01/07 04:42:59;;;;;;;;;;;4.40;99.90;;;;;;5134372;28;20014;-79
2022/01/07 04:45:25;;;;;;;;;;;4.40;99.90;;;;;;5134348;28;19972;-77
2022/01/07 04:47:51;;;;;;;;;;;4.30;99.90;;;;;;5115890;28;19908;-77
2022/01/07 04:50:19;;;;;;;;;;;4.30;99.90;;;;;;5115926;28;20403;-76
2022/01/07 04:52:45;;;;;;;;;;;4.40;99.90;;;;;;5138119;27;19933;-77
2022/01/07 04:55:12;;;;;;;;;;;4.40;99.90;;;;;;5103197;27;19911;-78
2022/01/07 04:57:37;;;;;;;;;;;4.50;99.90;;;;;;5138520;27;20006;-77
2022/01/07 05:00:05;;;;;;;;;;;4.40;99.90;;;;;;5102666;27;20006;-78
2022/01/07 05:02:30;;;;;;;;;;;4.40;99.90;;;;;;5119683;27;20399;-77
2022/01/07 05:04:56;;;;;;;;;;;4.40;99.90;;;;;;5102766;27;19965;-77
2022/01/07 05:07:21;;;;;;;;;;;4.40;99.90;;;;;;5119506;27;19907;-76
2022/01/07 05:09:47;;;;;;;;;;;4.40;99.90;;;;;;5119744;27;19907;-76
2022/01/07 05:12:12;;;;;;;;;;;4.40;99.90;;;;;;5137761;27;19911;-76
2022/01/07 05:14:38;;;;;;;;;;;4.40;99.90;;;;;;5138007;27;20270;-77
2022/01/07 05:17:03;;;;;;;;;;;4.40;99.90;;;;;;5119416;27;19991;-79
2022/01/07 05:19:29;;;;;;;;;;;4.40;99.90;;;;;;5119301;27;20343;-77
2022/01/07 05:21:54;;;;;;;;;;;4.50;99.90;;;;;;5102338;27;19911;-77
2022/01/07 05:24:20;;;;;;;;;;;4.40;99.90;;;;;;5102558;27;20363;-78
2022/01/07 05:26:45;;;;;;;;;;;4.40;99.90;;;;;;5137540;27;20244;-78
2022/01/07 05:29:11;;;;;;;;;;;4.40;99.90;;;;;;5118862;27;20002;-78
2022/01/07 05:31:36;;;;;;;;;;;4.50;99.90;;;;;;5119393;27;20010;-78
2022/01/07 05:34:02;;;;;;;;;;;4.50;99.90;;;;;;5137287;27;19919;-79
2022/01/07 05:36:28;;;;;;;;;;;4.50;99.90;;;;;;5137828;27;20320;-78
2022/01/07 05:38:53;;;;;;;;;;;4.60;99.90;;;;;;5137438;27;19908;-77
2022/01/07 05:41:19;;;;;;;;;;;4.60;99.90;;;;;;5118945;27;19911;-76
2022/01/07 05:43:45;;;;;;;;;;;4.60;99.90;;;;;;5137735;27;19966;-76
2022/01/07 05:46:14;;;;;;;;;;;4.70;99.90;;;;;;5101971;27;19912;-78
2022/01/07 05:48:40;;;;;;;;;;;4.70;99.90;;;;;;5102179;27;19912;-78
2022/01/07 05:51:07;;;;;;;;;;;4.70;99.90;;;;;;5118607;27;19912;-79
2022/01/07 05:53:32;;;;;;;;;;;4.70;99.90;;;;;;5119039;27;20002;-76
2022/01/07 05:55:58;;;;;;;;;;;4.70;99.90;;;;;;5118640;27;19969;-77
2022/01/07 05:58:24;;;;;;;;;;;4.70;99.90;;;;;;5137395;27;19911;-77
2022/01/07 06:00:49;;;;;;;;;;;4.70;99.90;;;;;;5137525;27;19907;-78
2022/01/07 06:03:15;;;;;;;;;;;4.80;99.90;;;;;;5118311;27;19916;-79
2022/01/07 06:05:40;;;;;;;;;;;4.80;99.90;;;;;;5118656;27;19911;-78
2022/01/07 06:08:06;;;;;;;;;;;4.80;99.90;;;;;;5118761;27;20431;-78
2022/01/07 06:10:31;;;;;;;;;;;4.80;99.90;;;;;;5118418;27;20003;-77
2022/01/07 06:12:57;;;;;;;;;;;4.80;99.90;;;;;;5118510;27;19911;-78
2022/01/07 06:15:22;;;;;;;;;;;4.80;99.90;;;;;;5118271;27;19954;-77
2022/01/07 06:17:48;;;;;;;;;;;4.80;99.90;;;;;;5101349;27;20017;-78
2022/01/07 06:20:14;;;;;;;;;;;4.90;99.90;;;;;;5117987;27;19919;-77
2022/01/07 06:22:39;;;;;;;;;;;4.90;99.90;;;;;;5118089;27;20363;-78
2022/01/07 06:25:05;;;;;;;;;;;4.90;99.90;;;;;;5118569;27;19912;-80
2022/01/07 06:27:30;;;;;;;;;;;4.90;99.90;;;;;;5117709;27;19923;-78
2022/01/07 06:29:57;;;;;;;;;;;4.90;99.90;;;;;;5136769;27;19908;-78
2022/01/07 06:32:23;;;;;;;;;;;4.90;99.90;;;;;;5118071;27;20014;-77
2022/01/07 06:34:49;;;;;;;;;;;4.90;99.90;;;;;;5136640;27;19908;-78
2022/01/07 06:37:14;;;;;;;;;;;5.00;99.90;;;;;;5136392;27;19912;-81
2022/01/07 06:39:40;;;;;;;;;;;5.00;99.90;;;;;;5101896;27;19912;-78
2022/01/07 06:42:06;;;;;;;;;;;5.00;99.90;;;;;;5100999;27;20314;-78
2022/01/07 06:44:31;;;;;;;;;;;5.00;99.90;;;;;;5118371;27;19920;-78
2022/01/07 06:46:57;;;;;;;;;;;5.00;99.90;;;;;;5117634;27;19952;-78
2022/01/07 06:49:22;;;;;;;;;;;5.00;99.90;;;;;;5117578;27;19919;-79
2022/01/07 06:51:49;;;;;;;;;;;5.00;99.90;;;;;;5117523;27;19957;-77
2022/01/07 06:54:15;;;;;;;;;;;5.00;99.90;;;;;;5136029;27;19914;-81
2022/01/07 06:56:41;;;;;;;;;;;5.10;99.90;;;;;;5117736;27;19986;-76
2022/01/07 06:59:07;;;;;;;;;;;5.10;99.90;;;;;;5117835;27;20343;-77
2022/01/07 07:01:33;;;;;;;;;;;5.10;99.90;;;;;;5135888;27;19918;-77
2022/01/07 07:03:58;;;;;;;;;;;5.10;99.90;;;;;;5117453;27;19947;-78
2022/01/07 07:06:24;;;;;;;;;;;5.10;99.90;;;;;;5117279;27;20384;-77
2022/01/07 07:08:49;;;;;;;;;;;5.10;99.90;;;;;;5117931;27;19912;-79
2022/01/07 07:11:15;;;;;;;;;;;5.10;99.90;;;;;;5101041;27;19912;-79
2022/01/07 07:13:40;;;;;;;;;;;5.20;99.90;;;;;;5136086;27;19911;-78
2022/01/07 07:16:06;;;;;;;;;;;5.20;99.90;;;;;;5135348;27;20344;-78
2022/01/07 07:18:31;;;;;;;;;;;5.20;99.90;;;;;;5099886;27;19911;-79
2022/01/07 07:20:58;;;;;;;;;;;5.30;99.90;;;;;;5135151;27;19918;-79
2022/01/07 07:23:23;;;;;;;;;;;5.30;99.90;;;;;;5099449;27;20289;-79
2022/01/07 07:25:49;;;;;;;;;;;5.30;99.90;;;;;;5099182;27;19937;-77
2022/01/07 07:28:15;;;;;;;;;;;5.30;99.90;;;;;;5116239;27;19919;-78
2022/01/07 07:30:42;;;;;;;;;;;5.40;99.90;;;;;;5115722;27;19908;-79
2022/01/07 07:33:30;;;;;;;;;;;5.40;99.90;;;;;;5099635;27;19915;-78
2022/01/07 07:36:36;;;;;;;;;;;5.40;99.90;;;;;;5119019;27;19915;-78
2022/01/07 07:38:43;;;;;;;;;;;5.40;99.90;;;;;;5123863;27;19918;-79
2022/01/07 07:41:10;;;;;;;;;;;5.40;99.90;;;;;;5134650;27;20347;-79
2022/01/07 07:43:36;;;;;;;;;;;5.40;99.90;;;;;;5134683;27;19922;-79
2022/01/07 07:46:02;;;;;;;;;;;5.50;99.90;;;;;;5134641;27;19907;-78
2022/01/07 07:48:27;;;;;;;;;;;5.50;99.90;;;;;;5116377;27;19908;-79
2022/01/07 07:50:53;;;;;;;;;;;5.50;99.90;;;;;;5115928;27;20438;-78
2022/01/07 07:53:18;;;;;;;;;;;5.40;99.90;;;;;;5099515;27;20400;-78
2022/01/07 07:55:46;;;;;;;;;;;5.50;99.90;;;;;;5116503;27;20325;-78
2022/01/07 07:58:11;;;;;;;;;;;5.50;99.90;;;;;;5134615;27;19908;-77
2022/01/07 08:00:37;;;;;;;;;;;5.50;99.90;;;;;;5116832;27;20019;-78
2022/01/07 08:03:02;;;;;;;;;;;5.50;99.90;;;;;;5117001;27;19923;-78
2022/01/07 08:05:28;;;;;;;;;;;5.50;99.90;;;;;;5099506;27;20359;-79
2022/01/07 08:07:53;;;;;;;;;;;5.50;99.90;;;;;;5134600;27;19911;-79
2022/01/07 08:10:23;;;;;;;;;;;5.60;99.90;;;;;;5116597;28;19908;-78
2022/01/07 08:12:53;;;;;;;;;;;5.70;99.90;;;;;;5100487;27;20327;-78
2022/01/07 08:18:04;;;;;;;;;;;5.60;99.90;;;;;;5135108;27;19975;-79
2022/01/07 08:20:29;;;;;;;;;;;5.60;99.90;;;;;;5134477;27;19990;-79
2022/01/07 08:22:55;;;;;;;;;;;5.70;99.90;;;;;;5118964;28;19919;-78
2022/01/07 08:25:21;;;;;;;;;;;5.70;99.90;;;;;;5119024;27;20406;-78
2022/01/07 08:27:48;;;;;;;;;;;5.70;99.90;;;;;;5144194;27;19927;-77
2022/01/07 08:30:20;;;;;;;;;;;5.70;99.90;;;;;;5125285;27;20009;-78
2022/01/07 08:35:30;;;;;;;;;;;5.80;99.90;;;;;;5146266;27;19934;-78
2022/01/07 08:37:56;;;;;;;;;;;5.80;99.90;;;;;;5147034;27;20305;-80
2022/01/07 08:40:21;;;;;;;;;;;5.80;99.90;;;;;;5125227;27;19914;-80
2022/01/07 08:42:47;;;;;;;;;;;5.80;99.90;;;;;;5123753;27;19907;-79
2022/01/07 08:45:12;;;;;;;;;;;5.90;99.90;;;;;;5122329;27;19911;-80
2022/01/07 08:47:38;;;;;;;;;;;5.90;99.90;;;;;;5105052;27;19961;-78
2022/01/07 08:50:04;;;;;;;;;;;5.90;99.90;;;;;;5121707;27;19919;-79
2022/01/07 08:52:29;;;;;;;;;;;5.90;99.90;;;;;;5122700;27;19965;-80
2022/01/07 08:54:55;;;;;;;;;;;6.00;99.90;;;;;;5105711;27;20371;-79
2022/01/07 08:57:20;;;;;;;;;;;6.00;99.90;;;;;;5141035;27;19912;-77
2022/01/07 08:59:47;;;;;;;;;;;6.00;99.90;;;;;;5122788;27;19922;-79
2022/01/07 09:02:12;;;;;;;;;;;6.00;99.90;;;;;;5122601;27;19915;-81
2022/01/07 09:04:38;;;;;;;;;;;6.00;99.90;;;;;;5140393;27;19969;-80
2022/01/07 09:07:04;;;;;;;;;;;6.10;99.90;;;;;;5105288;27;19955;-80
2022/01/07 09:09:29;;;;;;;;;;;6.00;99.90;;;;;;5122353;27;19912;-82
2022/01/07 09:11:55;;;;;;;;;;;6.00;99.90;;;;;;5121869;27;20046;-79
2022/01/07 09:14:20;;;;;;;;;;;6.00;99.90;;;;;;5105442;27;20269;-80
2022/01/07 09:16:46;;;;;;;;;;;6.00;99.90;;;;;;5106515;27;19919;-81
2022/01/07 09:19:11;;;;;;;;;;;6.00;99.90;;;;;;5124415;27;19915;-81
2022/01/07 09:21:37;;;;;;;;;;;6.10;99.90;;;;;;5106763;27;19915;-78
2022/01/07 09:24:02;;;;;;;;;;;6.00;99.90;;;;;;5107675;27;19988;-80
2022/01/07 09:26:28;;;;;;;;;;;6.00;99.90;;;;;;5124361;27;19923;-79
2022/01/07 09:28:53;;;;;;;;;;;6.00;99.90;;;;;;5124237;27;19907;-78
2022/01/07 09:31:19;;;;;;;;;;;6.00;99.90;;;;;;5106513;27;19922;-79
2022/01/07 09:33:45;;;;;;;;;;;6.00;99.90;;;;;;5122951;27;19919;-79
2022/01/07 09:36:11;;;;;;;;;;;6.00;99.90;;;;;;5105941;27;19918;-78
2022/01/07 09:38:36;;;;;;;;;;;6.00;99.90;;;;;;5137617;27;20334;-80
2022/01/07 09:41:02;;;;;;;;;;;6.10;99.90;;;;;;5103324;27;20430;-80
2022/01/07 09:43:27;;;;;;;;;;;6.10;99.90;;;;;;5140519;27;19920;-81
2022/01/07 09:45:53;;;;;;;;;;;6.10;99.90;;;;;;5123220;27;19914;-80
2022/01/07 09:48:18;;;;;;;;;;;6.20;99.90;;;;;;5106742;27;19912;-80
2022/01/07 09:50:45;;;;;;;;;;;6.10;99.90;;;;;;5107012;27;19911;-80
2022/01/07 09:53:15;;;;;;;;;;;6.20;99.90;;;;;;5107353;27;19911;-79
2022/01/07 09:55:41;;;;;;;;;;;6.20;99.90;;;;;;5122185;27;19907;-79
2022/01/07 09:58:07;;;;;;;;;;;6.10;99.90;;;;;;5140914;27;19907;-79
2022/01/07 10:00:34;;;;;;;;;;;6.20;99.90;;;;;;5106098;27;19916;-79
2022/01/07 10:03:01;;;;;;;;;;;6.20;99.90;;;;;;5105948;27;20287;-79
2022/01/07 10:05:27;;;;;;;;;;;6.20;99.90;;;;;;5141635;27;19907;-81
2022/01/07 10:07:53;;;;;;;;;;;6.10;99.90;;;;;;5141248;27;20387;-79
2022/01/07 10:10:19;;;;;;;;;;;6.20;99.90;;;;;;5106222;27;19911;-80
2022/01/07 10:13:02;;;;;;;;;;;6.20;99.90;;;;;;5121911;27;19907;-79
2022/01/07 10:15:31;;;;;;;;;;;6.30;99.90;;;;;;5141403;27;19907;-79
2022/01/07 10:17:59;;;;;;;;;;;6.40;99.90;;;;;;5124161;27;20243;-80
2022/01/07 10:20:25;;;;;;;;;;;6.60;99.90;;;;;;5141581;27;19907;-81
2022/01/07 10:22:53;;;;;;;;;;;7.00;99.90;;;;;;5121822;27;19907;-80
2022/01/07 10:25:21;;;;;;;;;;;7.20;99.90;;;;;;5121704;27;19943;-79
2022/01/07 10:27:47;;;;;;;;;;;7.50;99.90;;;;;;5140228;27;19920;-81
2022/01/07 10:30:14;;;;;;;;;;;7.80;99.60;;;;;;5104241;27;20386;-80
2022/01/07 10:32:39;;;;;;;;;;;7.90;99.10;;;;;;5121432;27;19914;-79
2022/01/07 10:35:15;;;;;;;;;;;7.90;98.80;;;;;;5121714;27;19908;-80
2022/01/07 10:37:48;;;;;;;;;;;7.80;99.00;;;;;;5122264;27;20029;-80
2022/01/07 10:40:23;;;;;;;;;;;7.70;98.80;;;;;;5122080;27;19908;-80
2022/01/07 10:42:50;;;;;;;;;;;7.50;98.80;;;;;;5121144;27;20296;-80
2022/01/07 10:45:16;;;;;;;;;;;7.30;99.20;;;;;;5139258;27;19907;-81
2022/01/07 10:47:41;;;;;;;;;;;7.40;99.30;;;;;;5121448;27;19914;-78
2022/01/07 10:50:17;;;;;;;;;;;7.30;99.40;;;;;;5120208;27;19912;-78
2022/01/07 10:52:43;;;;;;;;;;;7.30;99.60;;;;;;5121478;27;19933;-81
2022/01/07 10:55:11;;;;;;;;;;;7.20;99.60;;;;;;5121320;27;19913;-80
2022/01/07 10:57:38;;;;;;;;;;;7.20;99.80;;;;;;5121415;27;19907;-79
2022/01/07 11:00:08;;;;;;;;;;;7.10;99.90;;;;;;5121531;27;20282;-80
2022/01/07 11:02:34;;;;;;;;;;;7.00;99.70;;;;;;5121772;27;19907;-80
2022/01/07 11:05:00;;;;;;;;;;;7.00;99.80;;;;;;5139974;27;19915;-80
2022/01/07 11:07:27;;;;;;;;;;;6.90;99.90;;;;;;5121539;27;19912;-80
2022/01/07 11:09:54;;;;;;;;;;;6.90;99.90;;;;;;5121393;27;19907;-81
2022/01/07 11:12:19;;;;;;;;;;;6.90;99.90;;;;;;5121739;27;19907;-79
2022/01/07 11:14:45;;;;;;;;;;;6.90;99.90;;;;;;5121623;27;19908;-79
2022/01/07 11:17:12;;;;;;;;;;;6.80;99.90;;;;;;5140700;27;19956;-85
2022/01/07 11:19:39;;;;;;;;;;;6.80;99.90;;;;;;5141071;27;19907;-80
2022/01/07 11:22:06;;;;;;;;;;;6.80;99.90;;;;;;5120866;27;19907;-80
2022/01/07 11:24:34;;;;;;;;;;;6.90;99.90;;;;;;5120956;27;19922;-80
2022/01/07 11:27:00;;;;;;;;;;;7.00;99.90;;;;;;5139246;27;19930;-79
2022/01/07 11:29:27;;;;;;;;;;;7.10;99.90;;;;;;5139246;27;20410;-79
2022/01/07 11:31:52;;;;;;;;;;;7.20;99.90;;;;;;5121142;27;19911;-80
2022/01/07 11:34:18;;;;;;;;;;;7.20;99.90;;;;;;5103375;27;19918;-79
2022/01/07 11:36:43;;;;;;;;;;;7.30;99.90;;;;;;5120974;27;19915;-80
2022/01/07 11:39:09;;;;;;;;;;;7.40;99.90;;;;;;5139746;27;19908;-79
2022/01/07 11:41:44;;;;;;;;;;;7.40;99.90;;;;;;5103870;27;19911;-81
2022/01/07 11:44:28;;;;;;;;;;;7.50;99.80;;;;;;5120915;27;19915;-79
2022/01/07 11:47:12;;;;;;;;;;;7.50;99.90;;;;;;5122124;27;20255;-80
2022/01/07 11:49:38;;;;;;;;;;;7.50;99.80;;;;;;5139322;27;19990;-80
2022/01/07 11:52:22;;;;;;;;;;;7.50;99.90;;;;;;5138244;27;20335;-81
2022/01/07 11:55:07;;;;;;;;;;;7.40;99.90;;;;;;5121870;27;19974;-80
2022/01/07 11:57:52;;;;;;;;;;;7.40;99.90;;;;;;5120892;27;20023;-80
2022/01/07 12:00:37;;;;;;;;;;;7.50;99.90;;;;;;5119539;27;19911;-81
2022/01/07 12:03:02;;;;;;;;;;;7.50;99.90;;;;;;5121445;27;19972;-81
2022/01/07 12:05:29;;;;;;;;;;;7.60;99.90;;;;;;5103629;27;20343;-80
2022/01/07 12:07:55;;;;;;;;;;;7.60;99.90;;;;;;5122208;27;19918;-82
2022/01/07 12:10:20;;;;;;;;;;;7.60;99.90;;;;;;5139462;27;19986;-80
2022/01/07 12:12:47;;;;;;;;;;;7.50;99.90;;;;;;5139430;27;19911;-81
2022/01/07 12:15:12;;;;;;;;;;;7.50;99.90;;;;;;5121165;28;19907;-81
2022/01/07 12:17:38;;;;;;;;;;;7.60;99.90;;;;;;5140036;27;20010;-81
2022/01/07 12:20:28;;;;;;;;;;;7.70;99.90;;;;;;5104563;28;19969;-81
2022/01/07 12:22:54;;;;;;;;;;;7.70;99.90;;;;;;5110030;28;19908;-80
2022/01/07 12:25:21;;;;;;;;;;;7.50;99.90;;;;;;5119821;28;19911;-79
2022/01/07 12:27:47;;;;;;;;;;;7.40;99.90;;;;;;5115942;28;19919;-77
2022/01/07 12:30:13;;;;;;;;;;;7.20;99.90;;;;;;5114950;28;20442;-78
2022/01/07 12:32:39;;;;;;;;;;;6.90;99.90;;;;;;5116197;28;19908;-77
2022/01/07 12:35:07;;;;;;;;;;;6.70;99.90;;;;;;5116793;28;19907;-77
2022/01/07 12:37:33;;;;;;;;;;;6.50;99.90;;;;;;5114948;28;19916;-75
2022/01/07 12:40:01;;;;;;;;;;;6.40;99.90;;;;;;5114428;28;20352;-76
2022/01/07 12:42:28;;;;;;;;;;;6.30;99.90;;;;;;5115099;28;19994;-75
2022/01/07 12:44:57;;;;;;;;;;;6.10;99.90;;;;;;5115408;28;19920;-75
2022/01/07 12:47:27;;;;;;;;;;;6.00;99.90;;;;;;5113338;28;19912;-76
2022/01/07 12:49:55;;;;;;;;;;;5.90;99.90;;;;;;5112392;28;19972;-78
2022/01/07 12:52:31;;;;;;;;;;;5.80;99.90;;;;;;5113191;28;19908;-76
2022/01/07 12:55:07;;;;;;;;;;;5.80;99.90;;;;;;5113196;28;19998;-81
2022/01/07 12:57:36;;;;;;;;;;;5.80;99.90;;;;;;5112590;28;19912;-76
2022/01/07 13:00:07;;;;;;;;;;;5.90;99.90;;;;;;5112294;28;20271;-76
2022/01/07 13:02:33;;;;;;;;;;;6.00;99.90;;;;;;5113401;28;19911;-77
2022/01/07 13:05:17;;;;;;;;;;;6.20;99.90;;;;;;5095188;28;19969;-79
2022/01/07 13:07:50;;;;;;;;;;;6.20;99.90;;;;;;5113407;28;19918;-81
2022/01/07 13:10:35;;;;;;;;;;;6.20;99.90;;;;;;5112095;28;19904;-78
2022/01/07 13:13:02;;;;;;;;;;;6.20;99.90;;;;;;5115405;28;19915;-77
2022/01/07 13:15:34;;;;;;;;;;;6.20;99.90;;;;;;5116292;28;19974;-77
2022/01/07 13:18:12;;;;;;;;;;;6.30;99.90;;;;;;5117034;28;20026;-79
2022/01/07 13:20:38;;;;;;;;;;;6.30;99.90;;;;;;5116004;28;19914;-77
2022/01/07 13:23:04;;;;;;;;;;;6.30;99.90;;;;;;5116397;28;20018;-78
2022/01/07 13:25:29;;;;;;;;;;;6.30;99.90;;;;;;5116548;28;19918;-78
2022/01/07 13:27:55;;;;;;;;;;;6.30;99.90;;;;;;5098342;28;19923;-77
2022/01/07 13:30:36;;;;;;;;;;;6.30;99.90;;;;;;5117159;28;19916;-78
2022/01/07 13:33:09;;;;;;;;;;;6.30;99.90;;;;;;5115976;28;20341;-78
2022/01/07 13:35:35;;;;;;;;;;;6.30;99.90;;;;;;5115409;28;19907;-75
2022/01/07 13:38:02;;;;;;;;;;;6.30;99.90;;;;;;5115806;28;19908;-80
2022/01/07 13:40:29;;;;;;;;;;;6.30;99.90;;;;;;5115946;28;20379;-78
2022/01/07 13:43:07;;;;;;;;;;;6.30;99.90;;;;;;5115518;28;20402;-76
2022/01/07 13:45:33;;;;;;;;;;;6.30;99.90;;;;;;5115734;28;20350;-78
2022/01/07 13:48:06;;;;;;;;;;;6.30;99.90;;;;;;5115158;28;19943;-78
2022/01/07 13:50:32;;;;;;;;;;;6.30;99.90;;;;;;5115421;28;20013;-81
2022/01/07 13:53:08;;;;;;;;;;;6.40;99.90;;;;;;5116307;28;19951;-80
2022/01/07 13:55:34;;;;;;;;;;;6.40;99.90;;;;;;5116048;28;20394;-79
2022/01/07 13:58:10;;;;;;;;;;;6.30;99.90;;;;;;5116364;28;19908;-78
2022/01/07 14:00:37;;;;;;;;;;;6.40;99.90;;;;;;5116046;28;19907;-79
2022/01/07 14:03:03;;;;;;;;;;;6.40;99.90;;;;;;5115793;28;19960;-81
2022/01/07 14:05:28;;;;;;;;;;;6.40;99.90;;;;;;5117466;28;20006;-79
2022/01/07 14:07:54;;;;;;;;;;;6.50;99.90;;;;;;5099185;28;20415;-80
2022/01/07 14:10:31;;;;;;;;;;;6.50;99.90;;;;;;5099111;28;19934;-79
2022/01/07 14:13:07;;;;;;;;;;;6.50;99.90;;;;;;5117484;27;19912;-77
2022/01/07 14:15:38;;;;;;;;;;;6.50;99.90;;;;;;5117261;28;19911;-79
2022/01/07 14:18:04;;;;;;;;;;;6.50;99.90;;;;;;5115855;28;19986;-83
2022/01/07 14:20:49;;;;;;;;;;;6.60;99.90;;;;;;5115861;28;19957;-78
2022/01/07 14:23:35;;;;;;;;;;;6.60;99.90;;;;;;5115469;28;19920;-78
2022/01/07 14:26:08;;;;;;;;;;;6.50;99.90;;;;;;5114054;28;19908;-78
2022/01/07 14:28:35;;;;;;;;;;;6.50;99.90;;;;;;5131620;27;19919;-79
2022/01/07 14:31:01;;;;;;;;;;;6.40;99.90;;;;;;5118032;27;19958;-78
2022/01/07 14:33:27;;;;;;;;;;;6.30;99.90;;;;;;5118087;27;19904;-80
2022/01/07 14:35:53;;;;;;;;;;;6.20;99.90;;;;;;5100946;27;19921;-79